createdAt,value
2018-04-19T00:00:13.506Z,17.50
2018-04-19T00:02:43.877Z,17.50
2018-04-19T00:05:14.966Z,17.50
2018-04-19T00:07:45.357Z,17.50
2018-04-19T00:10:15.720Z,17.50
2018-04-19T00:12:46.087Z,17.50
2018-04-19T00:15:17.194Z,17.40
2018-04-19T00:17:47.553Z,17.40
2018-04-19T00:20:18.681Z,17.40
2018-04-19T00:22:49.069Z,17.40
2018-04-19T00:25:19.430Z,17.40
2018-04-19T00:27:49.789Z,17.30
2018-04-19T00:30:20.955Z,17.20
2018-04-19T00:32:51.336Z,17.20
2018-04-19T00:35:21.699Z,17.20
2018-04-19T00:37:52.074Z,17.10
2018-04-19T00:40:22.441Z,17.20
2018-04-19T00:42:52.751Z,17.10
2018-04-19T00:45:23.110Z,17.20
2018-04-19T00:47:53.477Z,17.10
2018-04-19T00:50:24.044Z,17.00
2018-04-19T00:53:12.177Z,17.00
2018-04-19T00:55:43.288Z,17.00
2018-04-19T00:58:13.655Z,17.00
2018-04-19T01:00:44.799Z,16.90
2018-04-19T01:03:15.914Z,16.90
2018-04-19T01:05:46.261Z,16.80
2018-04-19T01:08:16.653Z,16.80
2018-04-19T01:10:47.021Z,16.70
2018-04-19T01:13:17.375Z,16.70
2018-04-19T01:15:49.802Z,16.60
2018-04-19T01:18:20.157Z,16.60
2018-04-19T01:20:50.531Z,16.70
2018-04-19T01:23:20.932Z,16.60
2018-04-19T01:25:51.276Z,16.70
2018-04-19T01:28:21.636Z,16.70
2018-04-19T01:30:52.218Z,16.70
2018-04-19T01:33:28.715Z,16.50
2018-04-19T01:36:28.763Z,16.30
2018-04-19T01:38:59.073Z,16.10
2018-04-19T01:41:29.380Z,16.00
2018-04-19T01:43:59.766Z,16.20
2018-04-19T01:49:21.962Z,16.20
2018-04-19T01:51:52.299Z,16.10
2018-04-19T01:54:22.665Z,16.20
2018-04-19T01:56:53.818Z,16.20
2018-04-19T01:59:24.170Z,16.20
2018-04-19T02:01:54.753Z,16.10
2018-04-19T02:04:25.883Z,16.10
2018-04-19T02:06:56.246Z,16.00
2018-04-19T02:09:26.553Z,16.10
2018-04-19T02:11:56.971Z,16.00
2018-04-19T02:14:27.324Z,16.00
2018-04-19T02:16:58.715Z,16.00
2018-04-19T02:19:29.098Z,15.80
2018-04-19T02:21:59.457Z,15.70
2018-04-19T02:24:30.842Z,15.60
2018-04-19T02:27:01.170Z,15.60
2018-04-19T02:29:32.296Z,15.90
2018-04-19T02:32:02.648Z,15.80
2018-04-19T02:34:33.033Z,15.90
2018-04-19T02:37:03.338Z,15.90
2018-04-19T02:39:33.650Z,15.70
2018-04-19T02:42:04.027Z,15.80
2018-04-19T02:44:34.365Z,15.70
2018-04-19T02:47:05.494Z,15.30
2018-04-19T02:49:35.890Z,15.20
2018-04-19T02:52:06.199Z,15.30
2018-04-19T02:54:37.561Z,15.40
2018-04-19T02:57:27.045Z,15.20
2018-04-19T02:59:57.388Z,15.30
2018-04-19T03:02:27.754Z,15.40
2018-04-19T03:04:58.148Z,15.20
2018-04-19T03:07:28.455Z,15.20
2018-04-19T03:09:58.799Z,15.20
2018-04-19T03:12:29.240Z,15.20
2018-04-19T03:14:59.525Z,15.20
2018-04-19T03:17:30.909Z,15.10
2018-04-19T03:20:01.272Z,15.20
2018-04-19T03:22:31.630Z,15.20
2018-04-19T03:25:04.037Z,15.10
2018-04-19T03:27:34.401Z,15.00
2018-04-19T03:30:04.970Z,15.00
2018-04-19T03:32:35.324Z,15.20
2018-04-19T03:35:06.472Z,15.00
2018-04-19T03:37:37.591Z,15.00
2018-04-19T03:40:07.954Z,15.00
2018-04-19T03:42:38.322Z,14.80
2018-04-19T03:45:28.056Z,14.80
2018-04-19T03:47:58.457Z,15.00
2018-04-19T03:50:28.822Z,14.70
2018-04-19T03:52:59.183Z,14.70
2018-04-19T03:55:30.591Z,14.80
2018-04-19T03:58:00.928Z,15.00
2018-04-19T04:00:31.279Z,14.80
2018-04-19T04:03:03.682Z,14.70
2018-04-19T04:05:34.034Z,14.60
2018-04-19T04:08:04.402Z,14.50
2018-04-19T04:10:42.095Z,14.30
2018-04-19T04:13:16.740Z,14.40
2018-04-19T04:15:47.109Z,14.40
2018-04-19T04:19:12.188Z,14.40
2018-04-19T04:22:37.387Z,14.30
2018-04-19T04:25:07.767Z,14.20
2018-04-19T04:27:38.108Z,14.30
2018-04-19T04:30:08.462Z,14.30
2018-04-19T04:32:39.050Z,14.20
2018-04-19T04:35:09.399Z,14.10
2018-04-19T04:37:39.761Z,14.10
2018-04-19T04:40:10.148Z,14.10
2018-04-19T04:42:40.514Z,14.30
2018-04-19T04:45:11.903Z,14.10
2018-04-19T04:47:43.302Z,14.00
2018-04-19T04:50:13.659Z,13.80
2018-04-19T04:52:44.019Z,14.00
2018-04-19T04:55:14.415Z,13.90
2018-04-19T04:57:44.773Z,14.00
2018-04-19T05:00:15.138Z,14.00
2018-04-19T05:02:45.503Z,14.00
2018-04-19T05:05:16.624Z,14.20
2018-04-19T05:07:46.975Z,14.10
2018-04-19T05:10:17.366Z,14.20
2018-04-19T05:12:47.711Z,14.00
2018-04-19T05:15:18.835Z,14.10
2018-04-19T05:17:49.197Z,14.10
2018-04-19T05:20:19.546Z,14.00
2018-04-19T05:22:50.633Z,14.10
2018-04-19T05:25:20.989Z,14.10
2018-04-19T05:27:51.347Z,14.20
2018-04-19T05:30:23.754Z,14.20
2018-04-19T05:32:54.132Z,14.10
2018-04-19T05:35:24.499Z,14.00
2018-04-19T05:37:54.845Z,13.80
2018-04-19T05:40:26.004Z,14.10
2018-04-19T05:42:57.119Z,14.20
2018-04-19T05:45:27.456Z,14.10
2018-04-19T05:47:57.827Z,14.10
2018-04-19T05:50:28.185Z,14.10
2018-04-19T05:52:58.550Z,14.20
2018-04-19T05:55:28.922Z,14.00
2018-04-19T05:58:20.700Z,14.00
2018-04-19T06:00:51.087Z,14.20
2018-04-19T06:03:21.438Z,14.30
2018-04-19T06:05:51.795Z,14.10
2018-04-19T06:08:22.184Z,14.20
2018-04-19T06:13:40.264Z,14.20
2018-04-19T06:16:11.389Z,14.40
2018-04-19T06:18:41.765Z,14.40
2018-04-19T06:21:12.153Z,14.30
2018-04-19T06:23:43.259Z,14.40
2018-04-19T06:26:14.649Z,14.40
2018-04-19T06:28:45.746Z,14.60
2018-04-19T06:31:23.254Z,14.60
2018-04-19T06:33:53.610Z,14.70
2018-04-19T06:36:24.726Z,15.10
2018-04-19T06:38:56.040Z,15.00
2018-04-19T06:41:26.439Z,15.40
2018-04-19T06:43:57.564Z,15.30
2018-04-19T06:46:27.930Z,15.20
2018-04-19T06:48:58.336Z,15.10
2018-04-19T06:51:39.846Z,15.00
2018-04-19T06:54:10.237Z,15.20
2018-04-19T06:56:41.369Z,15.50
2018-04-19T06:59:11.724Z,15.50
2018-04-19T07:01:42.107Z,15.60
2018-04-19T07:04:12.489Z,15.90
2018-04-19T07:06:42.858Z,16.10
2018-04-19T07:28:56.506Z,17.40
2018-04-19T07:34:45.869Z,17.40
2018-04-19T07:40:35.270Z,17.60
2018-04-19T07:46:24.655Z,17.70
2018-04-19T07:52:13.980Z,18.00
2018-04-19T07:54:44.576Z,18.10
2018-04-19T07:57:14.984Z,18.20
2018-04-19T07:59:45.365Z,18.00
2018-04-19T08:02:16.488Z,18.40
2018-04-19T08:04:46.858Z,18.30
2018-04-19T08:07:17.254Z,18.50
2018-04-19T08:09:48.385Z,18.60
2018-04-19T08:12:18.731Z,18.60
2018-04-19T08:14:49.228Z,18.60
2018-04-19T08:17:19.498Z,18.60
2018-04-19T08:19:49.852Z,18.60
2018-04-19T08:22:20.361Z,18.80
2018-04-19T08:24:50.788Z,18.80
2018-04-19T08:27:21.184Z,18.80
2018-04-19T08:29:52.347Z,19.00
2018-04-19T08:32:22.709Z,18.90
2018-04-19T08:35:00.252Z,19.20
2018-04-19T08:37:31.391Z,19.10
2018-04-19T08:40:01.732Z,19.10
2018-04-19T08:42:32.088Z,19.10
2018-04-19T08:45:03.481Z,19.00
2018-04-19T08:47:33.843Z,19.20
2018-04-19T08:50:04.247Z,19.50
2018-04-19T08:52:34.585Z,19.40
2018-04-19T08:55:04.953Z,19.20
2018-04-19T08:57:42.509Z,19.30
2018-04-19T09:00:13.627Z,19.30
2018-04-19T09:02:44.033Z,19.30
2018-04-19T09:05:15.129Z,19.30
2018-04-19T09:07:45.473Z,19.30
2018-04-19T09:10:15.818Z,19.60
2018-04-19T09:12:48.233Z,19.60
2018-04-19T09:15:18.596Z,19.80
2018-04-19T09:17:48.968Z,19.90
2018-04-19T09:20:19.341Z,19.80
2018-04-19T09:22:49.835Z,19.70
2018-04-19T09:25:20.283Z,19.70
2018-04-19T09:27:51.445Z,19.90
2018-04-19T09:30:22.064Z,19.90
2018-04-19T09:32:52.414Z,20.00
2018-04-19T09:35:23.829Z,19.90
2018-04-19T09:37:54.910Z,20.10
2018-04-19T09:40:25.259Z,20.10
2018-04-19T09:42:56.662Z,19.90
2018-04-19T09:45:28.043Z,20.00
2018-04-19T09:47:58.430Z,20.30
2018-04-19T09:50:29.574Z,19.90
2018-04-19T09:52:59.936Z,19.90
2018-04-19T09:55:37.470Z,20.00
2018-04-19T09:58:10.702Z,20.40
2018-04-19T10:00:47.060Z,20.20
2018-04-19T10:03:20.162Z,20.30
2018-04-19T10:05:50.506Z,20.20
2018-04-19T10:08:39.998Z,20.50
2018-04-19T10:11:10.367Z,20.50
2018-04-19T10:13:40.709Z,20.50
2018-04-19T10:16:11.166Z,20.60
2018-04-19T10:18:41.448Z,20.50
2018-04-19T10:21:12.801Z,20.50
2018-04-19T10:23:43.940Z,20.50
2018-04-19T10:26:15.089Z,20.50
2018-04-19T10:28:45.455Z,20.50
2018-04-19T10:31:37.002Z,20.70
2018-04-19T10:34:07.668Z,20.70
2018-04-19T10:36:38.740Z,21.20
2018-04-19T10:39:13.231Z,21.20
2018-04-19T10:41:43.535Z,21.20
2018-04-19T10:44:13.891Z,20.90
2018-04-19T10:46:44.289Z,20.70
2018-04-19T10:49:14.651Z,20.90
2018-04-19T10:51:44.961Z,21.00
2018-04-19T10:54:15.348Z,20.90
2018-04-19T10:56:45.687Z,21.20
2018-04-19T10:59:16.043Z,21.10
2018-04-19T11:01:46.457Z,21.10
2018-04-19T11:04:19.508Z,21.30
2018-04-19T11:06:49.859Z,21.30
2018-04-19T11:09:20.241Z,21.30
2018-04-19T11:11:50.583Z,21.30
2018-04-19T11:14:21.157Z,21.20
2018-04-19T11:16:51.551Z,21.40
2018-04-19T11:19:23.958Z,21.40
2018-04-19T11:21:55.071Z,21.40
2018-04-19T11:24:25.435Z,21.40
2018-04-19T11:26:56.548Z,21.50
2018-04-19T11:29:26.885Z,21.50
2018-04-19T11:31:58.037Z,22.00
2018-04-19T11:34:29.116Z,22.10
2018-04-19T11:36:59.486Z,22.10
2018-04-19T11:39:30.891Z,21.90
2018-04-19T11:42:01.317Z,22.20
2018-04-19T11:44:31.607Z,22.00
2018-04-19T11:47:02.750Z,21.90
2018-04-19T11:49:33.836Z,21.90
2018-04-19T11:52:07.267Z,21.90
2018-04-19T11:57:21.839Z,22.50
2018-04-19T11:59:52.223Z,22.20
2018-04-19T12:02:22.596Z,22.10
2018-04-19T12:04:52.954Z,22.10
2018-04-19T12:07:24.100Z,22.60
2018-04-19T12:09:55.207Z,22.70
2018-04-19T12:12:25.552Z,22.70
2018-04-19T12:14:55.928Z,22.50
2018-04-19T12:17:29.362Z,22.60
2018-04-19T12:19:59.721Z,22.60
2018-04-19T12:22:30.866Z,22.80
2018-04-19T12:25:01.996Z,23.10
2018-04-19T12:27:33.104Z,23.00
2018-04-19T12:30:03.490Z,23.00
2018-04-19T12:32:34.852Z,22.80
2018-04-19T12:35:07.251Z,23.00
2018-04-19T12:37:38.739Z,22.90
2018-04-19T12:40:09.028Z,23.00
2018-04-19T12:42:58.779Z,22.80
2018-04-19T12:45:29.158Z,23.00
2018-04-19T12:47:59.513Z,23.10
2018-04-19T12:50:29.888Z,22.90
2018-04-19T12:53:00.246Z,23.00
2018-04-19T12:55:30.595Z,23.00
2018-04-19T12:58:01.712Z,23.10
2018-04-19T13:00:32.046Z,23.00
2018-04-19T13:03:03.173Z,23.20
2018-04-19T13:05:33.545Z,23.20
2018-04-19T13:08:03.884Z,23.30
2018-04-19T13:10:40.406Z,23.50
2018-04-19T13:13:11.533Z,23.80
2018-04-19T13:15:41.877Z,23.80
2018-04-19T13:18:13.048Z,23.70
2018-04-19T13:20:43.360Z,23.60
2018-04-19T13:23:14.484Z,23.80
2018-04-19T13:25:44.859Z,23.80
2018-04-19T13:28:15.189Z,24.00
2018-04-19T13:30:52.738Z,23.90
2018-04-19T13:33:23.865Z,23.90
2018-04-19T13:35:56.249Z,23.90
2018-04-19T13:38:27.381Z,23.80
2018-04-19T13:40:57.722Z,23.80
2018-04-19T13:43:28.797Z,24.00
2018-04-19T13:45:59.188Z,23.90
2018-04-19T13:48:30.317Z,23.80
2018-04-19T13:51:00.673Z,23.80
2018-04-19T13:53:31.820Z,23.90
2018-04-19T13:56:02.941Z,24.00
2018-04-19T13:58:33.287Z,24.00
2018-04-19T14:01:04.423Z,24.00
2018-04-19T14:03:35.525Z,24.20
2018-04-19T14:06:05.863Z,24.20
2018-04-19T14:08:36.245Z,24.10
2018-04-19T14:11:06.582Z,24.10
2018-04-19T14:13:36.947Z,24.10
2018-04-19T14:16:07.330Z,23.90
2018-04-19T14:18:37.691Z,24.00
2018-04-19T14:21:08.076Z,24.20
2018-04-19T14:23:38.400Z,24.30
2018-04-19T14:26:08.769Z,24.20
2018-04-19T14:28:39.108Z,23.80
2018-04-19T14:31:09.527Z,24.00
2018-04-19T14:33:39.853Z,24.10
2018-04-19T14:36:11.215Z,24.20
2018-04-19T14:38:41.576Z,24.20
2018-04-19T14:41:11.912Z,24.10
2018-04-19T14:43:44.318Z,24.10
2018-04-19T14:46:14.682Z,24.10
2018-04-19T14:48:45.807Z,24.00
2018-04-19T14:51:17.188Z,24.00
2018-04-19T14:53:47.565Z,24.00
2018-04-19T14:56:17.925Z,24.10
2018-04-19T14:58:49.052Z,24.00
2018-04-19T15:01:19.435Z,24.00
2018-04-19T15:03:56.941Z,24.10
2018-04-19T15:06:47.725Z,24.10
2018-04-19T15:09:18.087Z,24.20
2018-04-19T15:11:48.424Z,24.30
2018-04-19T15:14:18.805Z,23.90
2018-04-19T15:16:49.168Z,24.00
2018-04-19T15:19:19.505Z,23.80
2018-04-19T15:21:49.884Z,23.80
2018-04-19T15:24:22.275Z,24.00
2018-04-19T15:26:52.620Z,24.00
2018-04-19T15:29:22.981Z,24.00
2018-04-19T15:31:54.134Z,24.30
2018-04-19T15:34:24.466Z,24.30
2018-04-19T15:36:54.844Z,24.10
2018-04-19T15:39:25.187Z,24.10
2018-04-19T15:41:56.304Z,23.90
2018-04-19T15:44:26.665Z,23.90
2018-04-19T15:46:57.817Z,24.00
2018-04-19T15:49:28.916Z,24.00
2018-04-19T15:51:59.255Z,24.00
2018-04-19T15:54:29.595Z,24.20
2018-04-19T15:57:00.720Z,23.90
2018-04-19T15:59:31.094Z,23.90
2018-04-19T16:02:01.434Z,24.00
2018-04-19T16:07:14.997Z,24.00
2018-04-19T16:09:45.369Z,23.80
2018-04-19T16:12:15.697Z,23.90
2018-04-19T16:14:46.839Z,23.90
2018-04-19T16:17:17.966Z,23.80
2018-04-19T16:19:48.325Z,23.80
2018-04-19T16:22:18.707Z,24.00
2018-04-19T16:24:49.120Z,23.80
2018-04-19T16:27:19.700Z,23.80
2018-04-19T16:29:51.868Z,23.60
2018-04-19T16:32:25.036Z,23.60
2018-04-19T16:34:55.375Z,23.60
2018-04-19T16:37:26.537Z,23.60
2018-04-19T16:39:57.641Z,23.50
2018-04-19T16:42:28.004Z,23.50
2018-04-19T16:45:00.182Z,23.60
2018-04-19T16:47:30.535Z,23.60
2018-04-19T16:50:00.888Z,23.30
2018-04-19T16:52:31.281Z,23.20
2018-04-19T16:55:01.594Z,23.30
2018-04-19T16:57:31.965Z,23.10
2018-04-19T17:00:02.341Z,23.10
2018-04-19T17:02:32.960Z,23.30
2018-04-19T17:05:03.277Z,23.30
2018-04-19T17:07:34.426Z,23.10
2018-04-19T17:10:04.796Z,23.10
2018-04-19T17:12:42.495Z,23.00
2018-04-19T17:15:35.475Z,23.10
2018-04-19T17:18:05.876Z,23.10
2018-04-19T17:20:56.323Z,22.90
2018-04-19T17:23:27.477Z,22.80
2018-04-19T17:25:58.590Z,23.00
2018-04-19T17:28:28.968Z,23.00
2018-04-19T17:30:59.366Z,22.90
2018-04-19T17:33:29.744Z,22.80
2018-04-19T17:36:05.217Z,22.70
2018-04-19T17:38:35.597Z,22.70
2018-04-19T17:41:06.013Z,22.60
2018-04-19T17:43:36.366Z,22.60
2018-04-19T17:46:06.755Z,22.60
2018-04-19T17:48:37.119Z,22.60
2018-04-19T17:51:26.876Z,22.60
2018-04-19T17:53:57.253Z,22.40
2018-04-19T17:56:27.652Z,22.40
2018-04-19T17:58:58.050Z,22.40
2018-04-19T18:01:28.417Z,22.40
2018-04-19T18:03:58.791Z,22.40
2018-04-19T18:06:29.949Z,22.20
2018-04-19T18:09:00.274Z,22.10
2018-04-19T18:11:30.636Z,22.20
2018-04-19T18:14:01.025Z,22.10
2018-04-19T18:16:33.406Z,22.00
2018-04-19T18:19:03.788Z,21.90
2018-04-19T18:21:34.175Z,21.90
2018-04-19T18:24:04.542Z,21.90
2018-04-19T18:26:34.897Z,21.80
2018-04-19T18:29:07.066Z,21.80
2018-04-19T18:31:37.430Z,21.80
2018-04-19T18:34:07.782Z,21.80
2018-04-19T18:36:38.163Z,21.70
2018-04-19T18:39:08.488Z,21.70
2018-04-19T18:41:38.854Z,21.60
2018-04-19T18:44:09.192Z,21.50
2018-04-19T18:46:39.561Z,21.50
2018-04-19T18:49:09.920Z,21.50
2018-04-19T18:51:40.281Z,21.50
2018-04-19T18:54:10.932Z,21.40
2018-04-19T18:56:42.057Z,21.30
2018-04-19T18:59:13.415Z,21.30
2018-04-19T19:01:44.537Z,21.30
2018-04-19T19:04:14.905Z,21.30
2018-04-19T19:06:45.249Z,21.20
2018-04-19T19:09:35.952Z,21.20
2018-04-19T19:12:06.343Z,21.20
2018-04-19T19:14:37.474Z,21.20
2018-04-19T19:18:02.400Z,21.20
2018-04-19T19:20:32.796Z,21.10
2018-04-19T19:23:03.133Z,21.10
2018-04-19T19:25:34.481Z,21.00
2018-04-19T19:28:05.594Z,21.00
2018-04-19T19:30:35.955Z,21.00
2018-04-19T19:33:06.350Z,21.00
2018-04-19T19:35:36.707Z,21.00
2018-04-19T19:38:07.825Z,20.90
2018-04-19T19:40:38.218Z,20.90
2018-04-19T19:43:14.715Z,20.80
2018-04-19T19:45:45.056Z,20.80
2018-04-19T19:48:15.452Z,20.70
2018-04-19T19:50:45.814Z,20.70
2018-04-19T19:53:16.179Z,20.70
2018-04-19T19:55:46.566Z,20.60
2018-04-19T19:58:17.708Z,20.50
2018-04-19T20:00:48.017Z,20.50
2018-04-19T20:03:18.361Z,20.50
2018-04-19T20:05:48.746Z,20.40
2018-04-19T20:08:19.079Z,20.40
2018-04-19T20:10:56.571Z,20.30
2018-04-19T20:13:48.342Z,20.30
2018-04-19T20:16:20.518Z,20.30
2018-04-19T20:18:51.651Z,20.20
2018-04-19T20:24:08.669Z,20.20
2018-04-19T20:26:39.010Z,20.10
2018-04-19T20:29:09.353Z,20.10
2018-04-19T20:31:40.482Z,20.10
2018-04-19T20:34:11.604Z,20.10
2018-04-19T20:36:41.945Z,20.10
2018-04-19T20:39:13.092Z,20.00
2018-04-19T20:41:44.219Z,20.00
2018-04-19T20:44:14.585Z,20.00
2018-04-19T20:46:44.917Z,19.90
2018-04-19T20:49:15.275Z,19.90
2018-04-19T20:51:51.790Z,19.90
2018-04-19T20:54:22.898Z,19.70
2018-04-19T20:56:53.246Z,19.70
2018-04-19T20:59:23.611Z,19.60
2018-04-19T21:01:53.972Z,19.50
2018-04-19T21:04:24.320Z,19.50
2018-04-19T21:06:54.699Z,19.50
2018-04-19T21:09:25.037Z,19.40
2018-04-19T21:12:15.505Z,19.50
2018-04-19T21:14:45.855Z,19.50
2018-04-19T21:17:20.283Z,19.50
2018-04-19T21:20:12.029Z,19.50
2018-04-19T21:22:42.384Z,19.60
2018-04-19T21:25:13.508Z,19.50
2018-04-19T21:27:43.889Z,19.50
2018-04-19T21:30:15.232Z,19.50
2018-04-19T21:32:45.837Z,19.50
2018-04-19T21:35:16.990Z,19.50
2018-04-19T21:37:48.114Z,19.50
2018-04-19T21:40:19.236Z,19.50
2018-04-19T21:42:49.618Z,19.40
2018-04-19T21:45:19.958Z,19.40
2018-04-19T21:47:54.406Z,19.30
2018-04-19T21:50:24.759Z,19.30
2018-04-19T21:52:55.113Z,19.30
2018-04-19T21:55:25.471Z,19.20
2018-04-19T21:58:18.010Z,19.30
2018-04-19T22:01:07.475Z,19.30
2018-04-19T22:03:38.881Z,19.20
2018-04-19T22:06:09.232Z,19.10
2018-04-19T22:08:39.583Z,19.20
2018-04-19T22:11:16.100Z,19.10
2018-04-19T22:13:47.225Z,19.20
2018-04-19T22:16:17.581Z,19.20
2018-04-19T22:18:48.734Z,19.20
2018-04-19T22:21:19.865Z,19.10
2018-04-19T22:23:50.226Z,19.10
2018-04-19T22:26:20.593Z,19.00
2018-04-19T22:28:50.937Z,18.80
2018-04-19T22:31:22.011Z,18.70
2018-04-19T22:33:52.340Z,18.80
2018-04-19T22:36:22.945Z,18.80
2018-04-19T22:38:54.068Z,18.90
2018-04-19T22:41:24.454Z,18.90
2018-04-19T22:43:58.907Z,19.00
2018-04-19T22:46:29.281Z,18.90
2018-04-19T22:48:59.645Z,18.80
2018-04-19T22:51:49.406Z,18.80
2018-04-19T22:54:19.745Z,18.80
2018-04-19T22:57:10.518Z,18.80
2018-04-19T22:59:40.880Z,18.80
2018-04-19T23:02:12.256Z,18.70
2018-04-19T23:04:42.833Z,18.70
2018-04-19T23:07:13.197Z,18.70
2018-04-19T23:09:43.539Z,18.70
2018-04-19T23:12:13.915Z,18.70
2018-04-19T23:14:44.256Z,18.70
2018-04-19T23:17:14.624Z,18.60
2018-04-19T23:19:45.001Z,18.60
2018-04-19T23:22:15.363Z,18.50
2018-04-19T23:24:45.703Z,18.40
2018-04-19T23:27:17.764Z,18.20
2018-04-19T23:29:48.121Z,18.20
2018-04-19T23:32:18.482Z,18.10
2018-04-19T23:35:10.282Z,18.10
2018-04-19T23:37:40.629Z,18.10
2018-04-19T23:40:18.148Z,18.10
2018-04-19T23:42:48.489Z,18.20
2018-04-19T23:45:18.853Z,18.20
2018-04-19T23:47:49.229Z,18.20
2018-04-19T23:50:19.537Z,18.10
2018-04-19T23:52:49.898Z,18.00
2018-04-19T23:55:21.041Z,17.80
2018-04-19T23:57:52.144Z,17.80
